Temecula, California
Current Conditions -  °F | °C
As of 11:35 PM on Sunday 21 Dec 2014 (Local Time) from KF70 Reporting Station
Clear Clear  
Wind Chill: 50°   Ceiling: Unl
Heat Index: 50°   Visibility: 7mi
Dew Point: 46°   Wind: 5mph
Humidity: 87%   Direction: 360°N
Pressure: 30.07"   Gusts: NA
Location:  33.5°N, 117.16°W
Report Text: KF70 220735Z AUTO 36004KT 7SM CLR 10/08 A3007 RMK AO1
Loading
Personal Weather Stations






























Interactive Weather Map New forecast layout! Learn more

10-Day Weather Forecast

Advertisements
Track Severe Weather on mobile